Time;durP1;ratioP1;P1;durP2;ratioP2;P2;SDS_P1;SDS_P2;PMS_P1;PMS_P2;Temp;Humidity;BMP_temperature;BMP_pressure;BME280_temperature;BME280_humidity;BME280_pressure;Samples;Min_cycle;Max_cycle;Signal;HPM_P1;HPM_P2
2023/12/15 00:01:06;;;;;;;15.48;12.23;;;;;;;7.64;80.53;102659.19;5088760;28;20115;-66
2023/12/15 00:03:31;;;;;;;15.75;12.55;;;;;;;7.65;81.59;102663.66;5085531;28;20024;-66
2023/12/15 00:05:59;;;;;;;17.80;12.65;;;;;;;7.63;81.33;102666.63;5092496;28;20020;-66
2023/12/15 00:08:25;;;;;;;15.18;12.25;;;;;;;7.65;80.79;102671.09;5080409;28;20082;-66
2023/12/15 00:10:50;;;;;;;18.98;13.23;;;;;;;7.66;81.85;102673.66;5090374;28;20024;-67
2023/12/15 00:13:16;;;;;;;19.38;13.88;;;;;;;7.67;81.06;102680.09;5086524;28;20035;-66
2023/12/15 00:15:41;;;;;;;16.83;13.27;;;;;;;7.67;81.46;102692.00;5074438;28;20032;-66
2023/12/15 00:18:07;;;;;;;20.05;14.90;;;;;;;7.67;82.10;102696.66;5089734;28;20483;-66
2023/12/15 00:20:32;;;;;;;16.67;14.07;;;;;;;7.67;81.55;102697.53;5091576;28;20028;-66
2023/12/15 00:22:58;;;;;;;20.63;15.18;;;;;;;7.65;81.65;102695.97;5092042;28;20434;-66
2023/12/15 00:25:23;;;;;;;22.25;15.18;;;;;;;7.65;82.16;102698.75;5092190;28;20036;-66
2023/12/15 00:27:48;;;;;;;18.58;15.00;;;;;;;7.65;82.05;102705.13;5091214;28;20020;-66
2023/12/15 00:30:14;;;;;;;19.98;16.02;;;;;;;7.62;82.62;102700.84;5079587;28;20040;-66
2023/12/15 00:32:39;;;;;;;21.83;15.75;;;;;;;7.66;81.64;102694.94;5071586;28;20060;-66
2023/12/15 00:35:05;;;;;;;23.92;17.20;;;;;;;7.61;82.84;102689.97;5073520;28;20127;-66
2023/12/15 00:37:30;;;;;;;21.17;15.65;;;;;;;7.62;82.52;102686.16;5091331;28;20039;-67
2023/12/15 00:39:56;;;;;;;20.50;16.17;;;;;;;7.62;82.28;102687.03;5092192;28;20020;-66
2023/12/15 00:42:22;;;;;;;22.90;17.08;;;;;;;7.63;82.26;102691.50;5091198;28;20052;-66
2023/12/15 00:44:47;;;;;;;22.67;16.75;;;;;;;7.64;82.25;102692.38;5089933;28;20470;-66
2023/12/15 00:47:14;;;;;;;22.40;16.70;;;;;;;7.69;82.31;102697.31;5091303;28;20077;-67
2023/12/15 00:49:40;;;;;;;24.05;17.13;;;;;;;7.67;82.05;102697.53;5090865;28;20024;-66
2023/12/15 00:52:05;;;;;;;24.58;17.83;;;;;;;7.68;82.98;102699.22;5088497;28;20390;-66
2023/12/15 00:54:30;;;;;;;23.80;18.15;;;;;;;7.70;81.99;102701.78;5079855;28;20027;-67
2023/12/15 00:56:56;;;;;;;24.48;18.33;;;;;;;7.68;82.84;102707.53;5090985;28;20077;-66
2023/12/15 00:59:21;;;;;;;23.52;17.77;;;;;;;7.68;83.13;102707.53;5089848;28;20062;-67
2023/12/15 01:01:46;;;;;;;23.95;17.52;;;;;;;7.69;82.60;102713.91;5091636;28;20474;-67
2023/12/15 01:04:11;;;;;;;26.20;18.20;;;;;;;7.72;82.38;102722.69;5090387;28;20152;-66
2023/12/15 01:06:37;;;;;;;25.60;17.85;;;;;;;7.68;82.97;102720.50;5078209;28;20038;-66
2023/12/15 01:09:03;;;;;;;22.75;17.90;;;;;;;7.70;82.93;102718.38;5083174;28;20032;-66
2023/12/15 01:11:28;;;;;;;29.38;18.58;;;;;;;7.70;83.18;102722.00;5084107;28;20052;-66
2023/12/15 01:13:53;;;;;;;26.88;19.00;;;;;;;7.70;83.21;102708.19;5076802;28;20085;-66
2023/12/15 01:16:18;;;;;;;22.98;18.98;;;;;;;7.73;82.93;102716.09;5090654;28;20480;-66
2023/12/15 01:18:44;;;;;;;26.98;19.10;;;;;;;7.73;83.39;102726.31;5091161;28;20043;-66
2023/12/15 01:21:09;;;;;;;26.30;18.60;;;;;;;7.73;83.13;102734.59;5091128;28;20115;-66
2023/12/15 01:23:37;;;;;;;26.75;19.73;;;;;;;7.73;83.08;102729.91;5090626;28;20111;-67
2023/12/15 01:26:03;;;;;;;29.00;19.08;;;;;;;7.73;83.77;102737.34;5091306;28;20027;-66
2023/12/15 01:28:28;;;;;;;27.83;19.17;;;;;;;7.73;82.86;102734.59;5089550;28;20126;-66
2023/12/15 01:30:54;;;;;;;24.77;19.45;;;;;;;7.70;83.19;102734.97;5085456;28;20056;-66
2023/12/15 01:33:19;;;;;;;23.17;18.73;;;;;;;7.71;83.69;102747.75;5070664;28;20111;-66
2023/12/15 01:35:45;;;;;;;26.20;19.25;;;;;;;7.74;83.54;102745.47;5090532;28;20089;-66
2023/12/15 01:38:10;;;;;;;24.75;19.13;;;;;;;7.71;84.05;102742.22;5088574;28;20128;-66
2023/12/15 01:40:35;;;;;;;24.65;19.40;;;;;;;7.72;84.03;102744.78;5091215;28;20077;-66
2023/12/15 01:43:00;;;;;;;25.70;19.33;;;;;;;7.72;83.38;102742.03;5091281;28;20150;-67
2023/12/15 01:45:26;;;;;;;24.15;18.65;;;;;;;7.74;83.55;102748.25;5074667;28;20031;-67
2023/12/15 01:47:52;;;;;;;23.27;17.70;;;;;;;7.75;83.43;102749.09;5070692;28;20427;-66
2023/12/15 01:50:17;;;;;;;21.10;18.08;;;;;;;7.77;83.52;102752.50;5070676;28;20051;-66
2023/12/15 01:52:43;;;;;;;23.20;18.38;;;;;;;7.76;84.32;102748.91;5076093;28;20597;-66
2023/12/15 01:55:08;;;;;;;22.65;18.17;;;;;;;7.77;84.27;102761.66;5079720;28;20032;-66
2023/12/15 01:57:33;;;;;;;23.88;18.45;;;;;;;7.76;83.50;102756.34;5087797;28;20036;-66
2023/12/15 01:59:59;;;;;;;22.92;18.02;;;;;;;7.78;83.95;102762.53;5074444;28;20021;-66
2023/12/15 02:02:25;;;;;;;23.63;17.92;;;;;;;7.75;84.17;102761.00;5074893;28;20156;-65
2023/12/15 02:04:53;;;;;;;19.88;17.30;;;;;;;7.78;84.40;102768.94;5073846;28;20555;-66
2023/12/15 02:07:18;;;;;;;21.15;17.33;;;;;;;7.79;84.40;102769.78;5073330;28;20483;-66
2023/12/15 02:09:44;;;;;;;21.70;17.73;;;;;;;7.77;84.46;102771.88;5089849;28;20072;-66
2023/12/15 02:12:09;;;;;;;21.70;18.05;;;;;;;7.76;84.44;102782.06;5082106;28;20035;-66
2023/12/15 02:14:34;;;;;;;21.08;17.55;;;;;;;7.77;84.37;102778.25;5079637;28;20482;-66
2023/12/15 02:16:59;;;;;;;21.60;17.90;;;;;;;7.80;84.73;102768.72;5089378;28;20024;-65
2023/12/15 02:19:25;;;;;;;23.30;19.17;;;;;;;7.78;84.49;102773.56;5077398;28;20111;-66
2023/12/15 02:21:50;;;;;;;20.45;17.23;;;;;;;7.81;84.20;102771.31;5077559;28;20028;-66
2023/12/15 02:24:16;;;;;;;25.27;18.92;;;;;;;7.80;84.58;102777.03;5079801;28;20078;-66
2023/12/15 02:26:41;;;;;;;21.83;18.23;;;;;;;7.83;84.46;102779.41;5073446;28;20032;-66
2023/12/15 02:29:06;;;;;;;24.20;18.50;;;;;;;7.81;84.66;102781.50;5084878;28;20105;-66
2023/12/15 02:31:32;;;;;;;23.27;19.65;;;;;;;7.82;84.40;102794.28;5079858;28;20032;-66
2023/12/15 02:33:57;;;;;;;23.83;19.63;;;;;;;7.81;84.75;102798.94;5080139;28;20035;-66
2023/12/15 02:36:24;;;;;;;23.15;19.33;;;;;;;7.81;84.32;102798.94;5078543;28;20769;-66
2023/12/15 02:38:50;;;;;;;25.05;19.60;;;;;;;7.82;84.53;102805.31;5088225;28;20043;-66
2023/12/15 02:41:15;;;;;;;21.83;18.63;;;;;;;7.85;84.61;102813.25;5089021;28;20020;-65
2023/12/15 02:43:43;;;;;;;25.52;19.20;;;;;;;7.85;84.73;102804.97;5080319;28;20225;-65
2023/12/15 02:46:09;;;;;;;26.17;19.27;;;;;;;7.85;84.66;102804.97;5073721;28;20089;-66
2023/12/15 02:48:34;;;;;;;26.50;20.25;;;;;;;7.85;85.09;102810.50;5075098;28;20028;-66
2023/12/15 02:51:05;;;;;;;24.98;19.52;;;;;;;7.85;84.86;102816.03;5089818;28;20016;-66
2023/12/15 02:53:31;;;;;;;25.58;19.83;;;;;;;7.87;85.23;102816.72;5086845;28;20047;-66
2023/12/15 02:55:56;;;;;;;23.70;19.38;;;;;;;7.88;84.57;102818.41;5079231;28;20024;-66
2023/12/15 02:58:21;;;;;;;25.95;19.73;;;;;;;7.89;85.33;102822.88;5074570;28;20475;-66
2023/12/15 03:00:50;;;;;;;27.20;20.52;;;;;;;7.88;85.17;102835.00;5073617;28;20024;-66
2023/12/15 03:03:15;;;;;;;25.90;19.75;;;;;;;7.90;84.94;102834.81;5072488;28;20025;-66
2023/12/15 03:05:40;;;;;;;28.25;20.73;;;;;;;7.90;84.78;102846.75;5073579;28;20043;-66
2023/12/15 03:08:06;;;;;;;26.08;20.38;;;;;;;7.88;84.90;102846.06;5073426;28;20024;-65
2023/12/15 03:10:31;;;;;;;28.38;20.70;;;;;;;7.90;84.95;102849.50;5084785;28;20043;-66
2023/12/15 03:12:56;;;;;;;31.00;22.50;;;;;;;7.90;85.43;102843.09;5078636;28;20494;-67
2023/12/15 03:15:22;;;;;;;30.48;21.30;;;;;;;7.89;85.33;102845.00;5085854;28;20379;-67
2023/12/15 03:17:47;;;;;;;30.88;21.95;;;;;;;7.91;85.14;102844.84;5075966;28;20475;-67
2023/12/15 03:20:12;;;;;;;31.15;21.10;;;;;;;7.93;85.16;102851.03;5086878;28;20510;-67
2023/12/15 03:22:38;;;;;;;30.20;22.30;;;;;;;7.93;85.43;102854.66;5083764;28;20142;-66
2023/12/15 03:25:07;;;;;;;30.63;21.73;;;;;;;7.92;85.27;102863.16;5080794;28;20032;-67
2023/12/15 03:27:32;;;;;;;28.35;21.60;;;;;;;7.92;85.54;102868.69;5079251;28;20136;-67
2023/12/15 03:29:59;;;;;;;31.63;23.10;;;;;;;7.90;86.08;102874.41;5072199;28;20115;-67
2023/12/15 03:32:25;;;;;;;31.58;22.23;;;;;;;7.91;85.63;102875.25;5081521;28;20059;-66
2023/12/15 03:34:50;;;;;;;32.80;22.52;;;;;;;7.91;86.05;102889.94;5081286;28;20416;-67
2023/12/15 03:37:24;;;;;;;32.08;23.67;;;;;;;7.95;85.78;102894.06;5079259;28;20095;-67
2023/12/15 03:39:50;;;;;;;33.28;23.42;;;;;;;7.91;85.99;102886.31;5088110;28;20432;-67
2023/12/15 03:42:15;;;;;;;33.78;23.13;;;;;;;7.93;85.55;102890.59;5085719;28;20062;-66
2023/12/15 03:44:40;;;;;;;35.30;23.75;;;;;;;7.93;85.57;102893.38;5073990;28;20021;-67
2023/12/15 03:47:07;;;;;;;33.03;23.17;;;;;;;7.91;85.84;102892.72;5072584;28;20502;-67
2023/12/15 03:49:36;;;;;;;33.35;24.52;;;;;;;7.96;85.92;102895.75;5076596;28;20475;-67
2023/12/15 03:52:02;;;;;;;36.10;24.52;;;;;;;7.94;86.04;102895.09;5080362;28;20029;-68
2023/12/15 03:54:27;;;;;;;38.83;25.05;;;;;;;7.94;85.97;102894.22;5089904;28;20020;-67
2023/12/15 03:56:59;;;;;;;35.63;24.88;;;;;;;7.93;86.26;102893.38;5080814;28;20031;-67
2023/12/15 03:59:25;;;;;;;38.92;25.60;;;;;;;7.94;85.74;102897.88;5079876;28;20088;-67
2023/12/15 04:01:50;;;;;;;37.22;24.85;;;;;;;7.95;86.16;102904.25;5085953;28;20475;-67
2023/12/15 04:04:17;;;;;;;41.70;27.42;;;;;;;7.93;86.64;102906.34;5091839;28;20044;-67
2023/12/15 04:06:42;;;;;;;43.38;27.45;;;;;;;7.96;86.09;102906.81;5088253;28;20027;-66
2023/12/15 04:09:09;;;;;;;40.38;26.77;;;;;;;7.98;86.35;102904.75;5081457;28;20043;-66
2023/12/15 04:11:35;;;;;;;46.72;27.67;;;;;;;7.97;86.12;102908.53;5073517;28;20483;-66
2023/12/15 04:14:00;;;;;;;39.60;27.08;;;;;;;8.01;86.21;102914.56;5076984;28;20107;-67
2023/12/15 04:16:26;;;;;;;45.15;28.45;;;;;;;8.00;86.09;102919.22;5085487;28;20499;-67
2023/12/15 04:18:51;;;;;;;42.88;29.17;;;;;;;8.01;85.95;102912.66;5075359;28;20020;-65
2023/12/15 04:21:16;;;;;;;47.50;28.23;;;;;;;8.00;86.07;102915.63;5081732;28;20051;-64
2023/12/15 04:23:41;;;;;;;49.40;28.95;;;;;;;8.01;86.31;102917.31;5074974;28;20365;-64
2023/12/15 04:26:07;;;;;;;49.83;29.98;;;;;;;8.00;86.31;102916.47;5071381;28;20055;-64
2023/12/15 04:28:32;;;;;;;47.92;29.85;;;;;;;8.00;86.51;102919.22;5087893;28;20463;-67
2023/12/15 04:30:57;;;;;;;51.03;31.73;;;;;;;8.01;86.58;102926.47;5089287;28;20027;-66
2023/12/15 04:33:23;;;;;;;51.10;30.05;;;;;;;8.03;86.47;102929.94;5085738;28;20110;-65
2023/12/15 04:35:48;;;;;;;49.40;30.35;;;;;;;8.03;87.03;102935.47;5082976;28;20044;-66
2023/12/15 04:38:13;;;;;;;52.30;30.48;;;;;;;8.04;86.84;102931.63;5078382;28;20075;-66
2023/12/15 04:40:39;;;;;;;55.40;32.10;;;;;;;8.01;86.45;102940.31;5079072;28;20811;-66
2023/12/15 04:43:04;;;;;;;51.58;33.15;;;;;;;8.03;86.38;102952.06;5084823;28;20039;-66
2023/12/15 04:45:29;;;;;;;53.83;31.77;;;;;;;8.05;87.24;102943.56;5071205;28;20488;-66
2023/12/15 04:47:54;;;;;;;51.90;31.27;;;;;;;8.07;87.04;102942.34;5070845;28;20111;-66
2023/12/15 04:50:20;;;;;;;53.67;31.13;;;;;;;8.05;87.21;102949.94;5073454;28;20364;-66
2023/12/15 04:52:46;;;;;;;54.90;32.45;;;;;;;8.04;87.01;102953.75;5084153;28;20035;-66
2023/12/15 04:55:13;;;;;;;53.22;31.65;;;;;;;8.05;87.46;102955.47;5090267;28;20111;-66
2023/12/15 04:57:39;;;;;;;56.92;31.15;;;;;;;8.07;86.99;102958.09;5090101;28;20039;-66
2023/12/15 05:00:07;;;;;;;55.75;32.55;;;;;;;8.05;86.70;102968.44;5089395;28;20049;-66
2023/12/15 05:02:32;;;;;;;53.25;31.88;;;;;;;8.05;87.21;102974.84;5079580;28;20505;-66
2023/12/15 05:04:58;;;;;;;59.58;33.35;;;;;;;8.07;86.99;102974.69;5071354;28;20028;-66
2023/12/15 05:07:23;;;;;;;56.83;33.00;;;;;;;8.08;86.90;102966.19;5071473;28;20024;-66
2023/12/15 05:09:48;;;;;;;60.85;33.50;;;;;;;8.07;87.11;102964.47;5079835;28;20484;-66
2023/12/15 05:12:13;;;;;;;56.15;32.55;;;;;;;8.09;87.14;102965.13;5080751;28;20123;-66
2023/12/15 05:14:41;;;;;;;58.33;33.97;;;;;;;8.09;87.56;102965.13;5072506;28;20429;-66
2023/12/15 05:17:06;;;;;;;55.25;33.92;;;;;;;8.10;87.33;102966.00;5083234;28;20047;-65
2023/12/15 05:19:32;;;;;;;58.95;34.45;;;;;;;8.12;87.79;102967.53;5070820;28;20024;-66
2023/12/15 05:21:57;;;;;;;57.83;33.83;;;;;;;8.10;87.08;102966.00;5083392;28;20028;-66
2023/12/15 05:24:23;;;;;;;63.33;35.17;;;;;;;8.11;86.92;102985.19;5090308;28;20032;-66
2023/12/15 05:26:49;;;;;;;56.60;34.90;;;;;;;8.14;87.63;102986.72;5090419;28;20056;-66
2023/12/15 05:29:14;;;;;;;57.88;33.80;;;;;;;8.12;87.39;102986.91;5082939;28;20089;-66
2023/12/15 05:31:39;;;;;;;57.35;35.13;;;;;;;8.15;87.54;102990.34;5084645;28;20032;-66
2023/12/15 05:34:05;;;;;;;59.08;33.25;;;;;;;8.15;87.10;102990.34;5094274;28;20032;-66
2023/12/15 05:36:30;;;;;;;59.05;33.75;;;;;;;8.16;87.02;103000.34;5084704;28;20043;-66
2023/12/15 05:38:56;;;;;;;58.03;35.55;;;;;;;8.16;87.39;103000.34;5083005;28;20047;-66
2023/12/15 05:41:22;;;;;;;62.35;36.53;;;;;;;8.14;87.85;103003.31;5074760;28;20383;-65
2023/12/15 05:43:48;;;;;;;57.92;35.83;;;;;;;8.16;87.85;103003.97;5093522;28;20499;-66
2023/12/15 05:46:14;;;;;;;63.25;37.03;;;;;;;8.17;87.62;103024.19;5075264;28;20024;-66
2023/12/15 05:48:39;;;;;;;67.60;37.20;;;;;;;8.18;87.82;103028.72;5086670;28;20031;-66
2023/12/15 05:51:06;;;;;;;64.45;36.92;;;;;;;8.18;87.42;103028.72;5080969;28;20024;-66
2023/12/15 05:53:32;;;;;;;68.90;38.15;;;;;;;8.19;87.19;103028.53;5078225;28;20040;-66
2023/12/15 05:55:57;;;;;;;62.92;35.80;;;;;;;8.20;87.64;103026.59;5084324;28;20528;-66
2023/12/15 05:58:22;;;;;;;63.40;37.45;;;;;;;8.21;87.45;103025.56;5084395;28;20036;-66
2023/12/15 06:00:49;;;;;;;65.93;39.33;;;;;;;8.22;87.52;103021.78;5086992;28;20028;-66
2023/12/15 06:03:17;;;;;;;70.75;38.65;;;;;;;8.20;87.72;103019.16;5083066;28;20032;-65
2023/12/15 06:05:42;;;;;;;70.32;40.42;;;;;;;8.21;87.82;103020.88;5081566;28;20440;-66
2023/12/15 06:08:07;;;;;;;65.85;38.53;;;;;;;8.22;87.80;103005.16;5093059;28;20028;-66
2023/12/15 06:10:32;;;;;;;67.72;38.17;;;;;;;8.24;88.17;103009.44;5077229;28;20024;-66
2023/12/15 06:12:58;;;;;;;64.75;38.00;;;;;;;8.23;87.71;103006.88;5087056;28;20024;-66
2023/12/15 06:15:23;;;;;;;69.45;39.60;;;;;;;8.23;87.85;103012.41;5074978;28;20759;-66
2023/12/15 06:17:48;;;;;;;65.13;38.65;;;;;;;8.22;87.88;103019.00;5077297;28;20115;-66
2023/12/15 06:20:14;;;;;;;69.00;38.63;;;;;;;8.22;88.26;103022.63;5074372;28;20060;-66
2023/12/15 06:22:39;;;;;;;65.65;39.70;;;;;;;8.22;87.72;103027.31;5094032;28;20019;-66
2023/12/15 06:25:05;;;;;;;67.35;39.10;;;;;;;8.25;88.18;103037.97;5092397;28;20036;-65
2023/12/15 06:27:36;;;;;;;69.38;39.22;;;;;;;8.24;88.14;103034.34;5092210;28;20115;-66
2023/12/15 06:30:02;;;;;;;64.80;39.30;;;;;;;8.26;88.17;103031.41;5086334;28;20058;-65
2023/12/15 06:32:28;;;;;;;67.82;39.88;;;;;;;8.28;88.20;103043.16;5077453;28;20033;-66
2023/12/15 06:34:53;;;;;;;63.60;40.08;;;;;;;8.29;88.21;103053.16;5082881;28;20105;-65
2023/12/15 06:37:18;;;;;;;67.05;39.75;;;;;;;8.28;88.39;103054.22;5078633;28;20064;-65
2023/12/15 06:39:45;;;;;;;63.35;38.50;;;;;;;8.27;88.18;103058.88;5083555;28;20031;-65
2023/12/15 06:42:10;;;;;;;63.58;39.20;;;;;;;8.29;87.85;103061.47;5083809;28;20622;-64
2023/12/15 06:44:36;;;;;;;73.68;40.83;;;;;;;8.28;88.54;103059.75;5081012;28;20028;-65
2023/12/15 06:47:02;;;;;;;67.32;39.85;;;;;;;8.28;88.55;103060.59;5076939;28;20028;-64
2023/12/15 06:49:30;;;;;;;70.97;41.00;;;;;;;8.28;88.12;103055.06;5091105;28;20028;-65
2023/12/15 06:51:59;;;;;;;66.80;39.70;;;;;;;8.29;88.16;103059.59;5085386;28;20616;-67
2023/12/15 06:54:25;;;;;;;67.22;42.08;;;;;;;8.30;88.46;103060.44;5081973;28;20039;-66
2023/12/15 06:56:50;;;;;;;68.72;40.75;;;;;;;8.31;88.58;103064.91;5072647;28;20024;-65
2023/12/15 06:59:16;;;;;;;71.50;40.22;;;;;;;8.32;88.13;103063.88;5079508;28;20113;-65
2023/12/15 07:01:41;;;;;;;72.10;40.88;;;;;;;8.32;87.86;103077.69;5082855;28;20069;-68
2023/12/15 07:04:06;;;;;;;70.70;41.22;;;;;;;8.34;88.44;103084.78;5086724;28;20035;-65
2023/12/15 07:06:32;;;;;;;69.75;41.15;;;;;;;8.34;88.38;103093.09;5087420;28;20033;-65
2023/12/15 07:08:58;;;;;;;65.32;39.80;;;;;;;8.35;88.28;103097.56;5085220;28;20035;-64
2023/12/15 07:11:23;;;;;;;64.60;40.25;;;;;;;8.37;88.40;103097.44;5073319;28;20099;-64
2023/12/15 07:13:48;;;;;;;75.82;41.75;;;;;;;8.36;88.24;103098.41;5078669;28;20418;-65
2023/12/15 07:16:20;;;;;;;68.90;40.55;;;;;;;8.36;87.91;103103.97;5086547;28;20032;-65
2023/12/15 07:18:45;;;;;;;69.22;40.80;;;;;;;8.36;88.21;103106.72;5091451;28;20043;-65
2023/12/15 07:21:11;;;;;;;70.70;40.72;;;;;;;8.37;88.35;103119.56;5092794;28;20027;-64
2023/12/15 07:23:37;;;;;;;77.32;42.65;;;;;;;8.34;88.84;103106.91;5091101;28;20031;-64
2023/12/15 07:26:04;;;;;;;71.05;42.35;;;;;;;8.34;88.54;103123.53;5092966;28;20035;-65
2023/12/15 07:28:29;;;;;;;68.85;42.60;;;;;;;8.36;88.93;103120.56;5078756;28;20035;-64
2023/12/15 07:30:54;;;;;;;74.63;42.92;;;;;;;8.38;88.71;103128.72;5086695;28;20028;-65
2023/12/15 07:33:20;;;;;;;77.55;43.10;;;;;;;8.38;88.50;103137.03;5083421;28;20082;-65
2023/12/15 07:35:45;;;;;;;74.47;41.40;;;;;;;8.39;88.21;103125.78;5092553;28;20458;-65
2023/12/15 07:38:10;;;;;;;74.93;42.75;;;;;;;8.39;88.19;103113.84;5090405;28;20449;-65
2023/12/15 07:40:36;;;;;;;76.50;43.10;;;;;;;8.39;88.61;103138.75;5092580;28;20020;-65
2023/12/15 07:43:01;;;;;;;76.90;41.80;;;;;;;8.40;88.64;103146.00;5092396;28;20475;-65
2023/12/15 07:45:27;;;;;;;70.90;40.85;;;;;;;8.40;88.29;103146.00;5076478;28;20463;-65
2023/12/15 07:47:53;;;;;;;75.13;41.78;;;;;;;8.41;88.17;103148.59;5077971;28;20065;-65
2023/12/15 07:50:19;;;;;;;70.90;40.65;;;;;;;8.43;88.15;103134.56;5074274;28;20036;-64
2023/12/15 07:52:44;;;;;;;71.32;42.45;;;;;;;8.42;88.73;103133.72;5084296;28;20039;-61
2023/12/15 07:55:10;;;;;;;72.95;41.72;;;;;;;8.44;88.57;103142.69;5076555;28;20502;-61
2023/12/15 07:57:35;;;;;;;70.25;40.53;;;;;;;8.44;88.50;103145.44;5080520;28;20033;-62
2023/12/15 08:00:00;;;;;;;76.65;42.40;;;;;;;8.44;88.58;103152.88;5076302;28;20495;-62
2023/12/15 08:02:26;;;;;;;78.25;41.78;;;;;;;8.44;88.56;103147.34;5084205;28;20020;-63
2023/12/15 08:04:51;;;;;;;74.57;42.35;;;;;;;8.44;88.64;103153.75;5080785;28;20027;-62
2023/12/15 08:07:16;;;;;;;76.82;40.30;;;;;;;8.46;88.80;103161.88;5078573;28;20043;-64
2023/12/15 08:09:41;;;;;;;71.55;41.40;;;;;;;8.46;88.37;103171.03;5090545;28;20019;-63
2023/12/15 08:12:07;;;;;;;75.80;40.85;;;;;;;8.47;88.85;103161.69;5088809;28;20031;-63
2023/12/15 08:14:32;;;;;;;73.75;40.28;;;;;;;8.47;88.33;103167.22;5081117;28;20085;-62
2023/12/15 08:16:58;;;;;;;72.38;39.97;;;;;;;8.47;88.14;103175.53;5076042;28;20107;-62
2023/12/15 08:19:29;;;;;;;72.97;40.55;;;;;;;8.48;88.55;103180.00;5082059;28;20502;-62
2023/12/15 08:21:54;;;;;;;72.65;40.15;;;;;;;8.47;88.19;103180.22;5083887;28;20061;-62
2023/12/15 08:24:19;;;;;;;78.45;42.33;;;;;;;8.48;88.35;103196.63;5077462;28;20101;-62
2023/12/15 08:26:45;;;;;;;73.03;40.50;;;;;;;8.47;88.76;103194.91;5080038;28;20020;-62
2023/12/15 08:29:10;;;;;;;73.57;40.38;;;;;;;8.48;88.49;103196.63;5079091;28;20464;-62
2023/12/15 08:31:37;;;;;;;75.10;39.83;;;;;;;8.49;88.59;103201.13;5082530;28;20032;-61
2023/12/15 08:34:03;;;;;;;70.75;40.10;;;;;;;8.49;88.57;103209.44;5073941;28;20025;-61
2023/12/15 08:36:28;;;;;;;72.95;40.00;;;;;;;8.50;88.30;103213.91;5083436;28;20058;-61
2023/12/15 08:38:53;;;;;;;73.70;38.42;;;;;;;8.52;88.27;103225.66;5090194;28;20039;-60
2023/12/15 08:41:19;;;;;;;70.10;39.25;;;;;;;8.50;88.39;103222.22;5079996;28;20057;-60
2023/12/15 08:43:44;;;;;;;70.78;39.80;;;;;;;8.53;88.52;103229.31;5090775;28;20387;-60
2023/12/15 08:46:09;;;;;;;61.33;32.60;;;;;;;8.74;90.05;103242.50;5076649;28;20029;-63
2023/12/15 08:48:35;;;;;;;70.40;37.88;;;;;;;8.62;88.42;103247.59;5073168;28;20123;-62
2023/12/15 08:51:00;;;;;;;67.38;37.50;;;;;;;8.63;88.21;103262.28;5070673;28;20032;-62
2023/12/15 08:53:25;;;;;;;63.65;38.50;;;;;;;8.62;87.83;103257.81;5078864;28;20043;-62
2023/12/15 08:55:50;;;;;;;67.05;38.83;;;;;;;8.62;87.67;103263.34;5069628;28;20139;-62
2023/12/15 08:58:16;;;;;;;61.17;36.08;;;;;;;8.63;88.18;103256.75;5084688;28;20031;-62
2023/12/15 09:00:42;;;;;;;68.82;38.53;;;;;;;8.62;87.64;103255.03;5089939;28;20028;-62
2023/12/15 09:03:07;;;;;;;65.70;37.85;;;;;;;8.59;88.34;103257.13;5090426;28;20024;-62
2023/12/15 09:05:36;;;;;;;69.70;38.20;;;;;;;8.59;87.78;103256.25;5090592;28;20035;-62
2023/12/15 09:08:02;;;;;;;65.55;38.10;;;;;;;8.60;88.22;103257.97;5090159;28;20031;-62
2023/12/15 09:10:34;;;;;;;66.75;36.38;;;;;;;8.61;88.50;103259.72;5088018;28;20039;-62
2023/12/15 09:13:02;;;;;;;67.03;36.65;;;;;;;8.62;87.77;103252.28;5069450;28;20130;-62
2023/12/15 09:15:29;;;;;;;64.57;37.90;;;;;;;8.60;88.17;103258.81;5088364;28;20035;-62
2023/12/15 09:17:54;;;;;;;65.63;37.10;;;;;;;8.62;88.39;103257.81;5090759;28;20032;-62
2023/12/15 09:20:19;;;;;;;64.10;36.67;;;;;;;8.63;87.95;103265.06;5090240;28;20534;-61
2023/12/15 09:22:46;;;;;;;59.45;36.08;;;;;;;8.64;88.54;103275.09;5090065;28;20034;-62
2023/12/15 09:25:11;;;;;;;66.40;34.75;;;;;;;8.65;88.04;103285.13;5090528;28;20042;-62
2023/12/15 09:27:37;;;;;;;64.75;36.30;;;;;;;8.64;88.58;103284.25;5087868;28;20032;-62
2023/12/15 09:30:02;;;;;;;58.55;33.72;;;;;;;8.66;87.87;103295.16;5078072;28;20047;-61
2023/12/15 09:32:28;;;;;;;60.85;33.58;;;;;;;8.70;88.08;103304.81;5090191;28;20350;-62
2023/12/15 09:34:53;;;;;;;57.00;33.85;;;;;;;8.70;88.19;103304.81;5090243;28;20032;-62
2023/12/15 09:37:18;;;;;;;58.90;33.95;;;;;;;8.72;87.65;103305.50;5087961;28;20536;-62
2023/12/15 09:39:43;;;;;;;58.53;34.17;;;;;;;8.69;88.13;103312.28;5083386;28;20028;-61
2023/12/15 09:42:09;;;;;;;61.17;34.10;;;;;;;8.72;87.81;103322.09;5075110;28;20032;-61
2023/12/15 09:44:35;;;;;;;60.90;33.67;;;;;;;8.72;87.88;103327.66;5082081;28;20032;-62
2023/12/15 09:47:01;;;;;;;59.35;33.35;;;;;;;8.73;87.64;103327.50;5086654;28;20024;-62
2023/12/15 09:49:27;;;;;;;60.35;31.73;;;;;;;8.73;88.23;103333.03;5089277;28;20031;-62
2023/12/15 09:51:52;;;;;;;56.88;31.70;;;;;;;8.73;87.36;103341.34;5088005;28;20062;-61
2023/12/15 09:54:20;;;;;;;58.60;32.55;;;;;;;8.76;87.55;103354.81;5090124;28;20479;-62
2023/12/15 09:56:46;;;;;;;52.47;31.58;;;;;;;8.75;87.77;103354.97;5090106;28;20474;-61
2023/12/15 09:59:12;;;;;;;52.63;29.50;;;;;;;8.75;87.42;103360.53;5088292;28;20025;-62
2023/12/15 10:01:38;;;;;;;56.00;31.33;;;;;;;8.74;87.57;103362.44;5073039;28;20463;-62
2023/12/15 10:04:05;;;;;;;62.30;31.38;;;;;;;8.75;87.58;103357.75;5089079;28;20045;-62
2023/12/15 10:06:33;;;;;;;49.50;30.25;;;;;;;8.76;87.84;103360.38;5084182;28;20475;-62
2023/12/15 10:08:59;;;;;;;49.92;28.73;;;;;;;8.77;87.65;103362.09;5089426;28;20059;-61
2023/12/15 10:11:24;;;;;;;53.13;29.48;;;;;;;8.78;87.44;103376.78;5089161;28;20083;-62
2023/12/15 10:13:53;;;;;;;53.28;29.88;;;;;;;8.77;87.44;103372.28;5090345;28;20040;-62
2023/12/15 10:16:18;;;;;;;52.13;30.35;;;;;;;8.78;87.60;103376.78;5088895;28;20032;-62
2023/12/15 10:18:43;;;;;;;54.13;29.10;;;;;;;8.79;87.40;103378.50;5084029;28;20364;-62
2023/12/15 10:21:08;;;;;;;53.90;30.13;;;;;;;8.79;87.43;103384.91;5087789;28;20024;-61
2023/12/15 10:23:37;;;;;;;45.58;27.85;;;;;;;8.80;87.26;103380.22;5093889;28;20565;-62
2023/12/15 10:26:05;;;;;;;44.65;27.35;;;;;;;8.81;87.52;103390.28;5093013;28;20088;-61
2023/12/15 10:28:38;;;;;;;46.92;29.42;;;;;;;8.82;87.06;103401.16;5089009;28;20028;-61
2023/12/15 10:31:16;;;;;;;51.20;28.52;;;;;;;8.83;86.95;103408.41;5088545;28;20643;-62
2023/12/15 10:33:41;;;;;;;51.78;28.05;;;;;;;8.82;86.96;103400.31;5089414;28;20032;-61
2023/12/15 10:36:11;;;;;;;50.85;28.23;;;;;;;8.82;87.04;103416.91;5075113;28;20186;-61
2023/12/15 10:38:36;;;;;;;47.53;28.58;;;;;;;8.84;86.75;103412.94;5090990;28;20128;-61
2023/12/15 10:41:02;;;;;;;46.00;26.90;;;;;;;8.85;87.19;103413.81;5079301;28;20032;-61
2023/12/15 10:43:29;;;;;;;46.85;27.15;;;;;;;8.85;87.12;103416.56;5091406;28;20020;-61
2023/12/15 10:45:54;;;;;;;49.20;26.50;;;;;;;8.85;86.59;103417.44;5081997;28;20182;-61
2023/12/15 10:48:19;;;;;;;49.55;28.05;;;;;;;8.86;86.98;103429.38;5091071;28;20028;-62
2023/12/15 10:50:46;;;;;;;50.30;27.23;;;;;;;8.89;86.95;103429.03;5077754;28;20072;-62
2023/12/15 10:53:14;;;;;;;51.80;25.67;;;;;;;8.88;86.58;103432.81;5087064;28;20129;-62
2023/12/15 10:55:45;;;;;;;46.85;26.17;;;;;;;8.88;86.82;103435.56;5093145;28;20110;-62
2023/12/15 10:58:12;;;;;;;46.83;25.50;;;;;;;8.88;87.06;103437.47;5089476;28;20498;-63
2023/12/15 11:00:38;;;;;;;46.35;25.63;;;;;;;8.90;87.22;103435.41;5079214;28;20034;-62
2023/12/15 11:03:09;;;;;;;32.80;19.58;;;;;;;9.31;87.80;103448.06;5083351;28;20103;-61
2023/12/15 11:05:35;;;;;;;40.50;24.98;;;;;;;9.20;86.35;103464.22;5085847;28;20085;-62
2023/12/15 11:08:00;;;;;;;43.72;24.90;;;;;;;9.25;86.00;103464.53;5084228;28;20034;-61
2023/12/15 11:10:26;;;;;;;44.72;24.98;;;;;;;9.21;85.78;103465.94;5074093;28;20016;-62